Mekoryuk, Alaska
Current Conditions -  °F | °C
As of 8:36 AM on Thursday 23 Oct 2014 (Local Time) from PAMY Reporting Station
Overcast Overcast  
Wind Chill: -3°   Ceiling: 2500
Heat Index:   Visibility: 10mi
Dew Point: -2°   Wind: 13mph
Humidity: 75%   Direction: 190°S
Pressure: 29.81"   Gusts: NA
Location:  60.39°N, 166.19°W
Report Text: PAMY 231636Z AUTO 19011KT 10SM OVC025 02/M02 A2981 RMK AO1
Loading
Personal Weather Stations






























Interactive Weather Map
Tropical Storm Tracking
New forecast layout! Learn more

10-Day Weather Forecast

Advertisements
Track Severe Weather on mobile